Time;durP1;ratioP1;P1;durP2;ratioP2;P2;SDS_P1;SDS_P2;PMS_P1;PMS_P2;Temp;Humidity;BMP_temperature;BMP_pressure;BME280_temperature;BME280_humidity;BME280_pressure;Samples;Min_cycle;Max_cycle;Signal;HPM_P1;HPM_P2
2022/07/12 00:00:48;;;;;;;1.23;0.70;;;;;;;;;;12634652;28;20028;-83
2022/07/12 00:06:50;;;;;;;0.70;0.70;;;;;;;;;;12634426;28;20036;-77
2022/07/12 00:12:54;;;;;;;0.73;0.55;;;;;;;;;;12650867;28;20032;-77
2022/07/12 00:18:55;;;;;;;0.57;0.50;;;;;;;;;;12650700;28;20040;-80
2022/07/12 00:24:57;;;;;;;1.45;0.60;;;;;;;;;;12650219;28;20032;-82
2022/07/12 00:30:59;;;;;;;0.63;0.50;;;;;;;;;;12649980;28;20039;-83
2022/07/12 00:37:01;;;;;;;0.60;0.30;;;;;;;;;;12616028;28;20054;-77
2022/07/12 00:43:03;;;;;;;;;;;;;;;;;;12651196;28;20060;-77
2022/07/12 00:49:05;;;;;;;3.10;0.52;;;;;;;;;;12649700;28;19931;-83
2022/07/12 00:55:08;;;;;;;0.98;0.57;;;;;;;;;;12631402;28;20044;-77
2022/07/12 01:01:10;;;;;;;0.50;0.50;;;;;;;;;;12648489;28;20032;-82
2022/07/12 01:07:15;;;;;;;0.57;0.50;;;;;;;;;;12614642;28;20460;-77
2022/07/12 01:13:17;;;;;;;0.60;0.35;;;;;;;;;;12630573;28;20178;-77
2022/07/12 01:19:21;;;;;;;0.32;0.25;;;;;;;;;;12648549;28;20046;-77
2022/07/12 01:25:22;;;;;;;0.50;0.50;;;;;;;;;;12648593;28;20039;-77
2022/07/12 01:31:24;;;;;;;;;;;;;;;;;;12631025;28;20484;-83
2022/07/12 01:37:28;;;;;;;1.00;0.80;;;;;;;;;;12629833;28;19916;-77
2022/07/12 01:43:30;;;;;;;5.10;1.88;;;;;;;;;;12648613;28;20642;-83
2022/07/12 01:49:32;;;;;;;3.92;1.70;;;;;;;;;;12649632;28;20032;-83
2022/07/12 01:55:34;;;;;;;3.45;1.77;;;;;;;;;;12628727;28;20036;-83
2022/07/12 02:01:37;;;;;;;2.25;1.27;;;;;;;;;;12628410;28;20028;-77
2022/07/12 02:07:39;;;;;;;2.38;1.15;;;;;;;;;;12628021;28;20055;-83
2022/07/12 02:13:42;;;;;;;2.08;1.33;;;;;;;;;;12628278;28;20040;-77
2022/07/12 02:19:44;;;;;;;1.25;0.70;;;;;;;;;;12645576;28;20040;-77
2022/07/12 02:25:45;;;;;;;1.38;0.77;;;;;;;;;;12645304;28;20024;-83
2022/07/12 02:31:47;;;;;;;;;;;;;;;;;;12609951;28;20020;-77
2022/07/12 02:37:48;;;;;;;1.33;0.90;;;;;;;;;;12645186;28;19916;-76
2022/07/12 02:43:50;;;;;;;1.60;0.93;;;;;;;;;;12647186;28;20063;-83
2022/07/12 02:49:52;;;;;;;;;;;;;;;;;;12647527;28;20036;-82
2022/07/12 02:55:53;;;;;;;1.93;0.80;;;;;;;;;;12628046;28;19916;-81
2022/07/12 03:01:55;;;;;;;3.33;0.70;;;;;;;;;;12645989;28;20028;-76
2022/07/12 03:07:57;;;;;;;1.75;0.90;;;;;;;;;;12627797;28;20201;-82
2022/07/12 03:13:58;;;;;;;0.47;0.47;;;;;;;;;;12628875;28;20044;-76
2022/07/12 03:20:00;;;;;;;1.13;1.13;;;;;;;;;;12645394;28;20047;-82
2022/07/12 03:26:03;;;;;;;1.52;1.08;;;;;;;;;;12645599;28;20032;-81
2022/07/12 03:32:05;;;;;;;0.95;0.93;;;;;;;;;;12627497;28;20028;-76
2022/07/12 03:38:07;;;;;;;1.42;0.82;;;;;;;;;;12628968;28;20052;-77
2022/07/12 03:44:09;;;;;;;0.63;0.50;;;;;;;;;;12644563;28;20400;-75
2022/07/12 03:50:11;;;;;;;;;;;;;;;;;;12628734;28;20036;-82
2022/07/12 03:57:13;;;;;;;1.67;1.00;;;;;;;;;;12609895;28;19939;-82
2022/07/12 04:02:35;;;;;;;2.58;0.90;;;;;;;;;;12644219;28;20074;-76
2022/07/12 04:08:36;;;;;;;1.80;0.85;;;;;;;;;;12644795;28;20482;-82
2022/07/12 04:14:38;;;;;;;0.70;0.65;;;;;;;;;;12644742;28;20051;-76
2022/07/12 04:20:40;;;;;;;0.80;0.80;;;;;;;;;;12643473;28;20036;-82
2022/07/12 04:26:41;;;;;;;1.38;0.82;;;;;;;;;;12650126;28;20043;-77
2022/07/12 04:32:43;;;;;;;1.75;0.70;;;;;;;;;;12653134;28;20035;-76
2022/07/12 04:38:45;;;;;;;1.02;0.93;;;;;;;;;;12635042;28;20040;-81
2022/07/12 04:44:47;;;;;;;0.85;0.60;;;;;;;;;;12634620;28;20036;-76
2022/07/12 04:50:48;;;;;;;;;;;;;;;;;;12651969;28;20028;-76
2022/07/12 04:56:50;;;;;;;1.60;1.00;;;;;;;;;;12652913;28;20092;-81
2022/07/12 05:02:51;;;;;;;;;;;;;;;;;;12634030;28;20368;-75
2022/07/12 05:08:53;;;;;;;0.93;0.93;;;;;;;;;;12633204;28;19908;-82
2022/07/12 05:14:55;;;;;;;1.55;0.80;;;;;;;;;;12633195;28;20531;-81
2022/07/12 05:20:57;;;;;;;1.23;1.13;;;;;;;;;;12650643;28;20036;-75
2022/07/12 05:26:58;;;;;;;;;;;;;;;;;;12650307;28;20039;-82
2022/07/12 05:33:00;;;;;;;1.00;1.00;;;;;;;;;;12631946;28;19912;-76
2022/07/12 05:39:02;;;;;;;1.08;1.00;;;;;;;;;;12631607;28;20048;-81
2022/07/12 05:45:05;;;;;;;0.90;0.80;;;;;;;;;;12629248;28;20044;-82
2022/07/12 05:57:27;;;;;;;1.02;0.50;;;;;;;;;;12647136;28;20048;-77
2022/07/12 06:03:28;;;;;;;;;;;;;;;;;;12646786;28;20039;-77
2022/07/12 06:09:30;;;;;;;0.53;0.47;;;;;;;;;;12627824;28;20109;-82
2022/07/12 06:15:31;;;;;;;;;;;;;;;;;;12626830;28;20251;-83
2022/07/12 06:21:33;;;;;;;0.88;0.60;;;;;;;;;;12644492;28;19927;-82
2022/07/12 06:27:35;;;;;;;0.88;0.60;;;;;;;;;;12626508;28;20027;-77
2022/07/12 06:33:37;;;;;;;1.38;0.80;;;;;;;;;;12644913;28;20028;-82
2022/07/12 06:39:38;;;;;;;;;;;;;;;;;;12647604;28;20056;-82
2022/07/12 06:45:40;;;;;;;2.03;0.75;;;;;;;;;;12627575;28;19915;-77
2022/07/12 06:51:42;;;;;;;0.80;0.73;;;;;;;;;;12645181;28;20036;-77
2022/07/12 06:57:44;;;;;;;0.35;0.35;;;;;;;;;;12626511;28;20058;-77
2022/07/12 07:03:46;;;;;;;0.65;0.60;;;;;;;;;;12644356;28;20032;-77
2022/07/12 07:09:48;;;;;;;0.70;0.63;;;;;;;;;;12610198;28;20036;-77
2022/07/12 07:15:49;;;;;;;1.30;0.75;;;;;;;;;;12626149;28;20036;-77
2022/07/12 07:21:51;;;;;;;1.55;0.68;;;;;;;;;;12626670;28;20046;-77
2022/07/12 07:27:53;;;;;;;0.98;0.60;;;;;;;;;;12643941;28;20024;-76
2022/07/12 07:33:54;;;;;;;1.05;0.63;;;;;;;;;;12645082;28;20036;-77
2022/07/12 07:39:56;;;;;;;0.95;0.30;;;;;;;;;;12625774;28;20052;-76
2022/07/12 07:45:58;;;;;;;0.43;0.40;;;;;;;;;;12608937;28;20061;-76
2022/07/12 07:52:01;;;;;;;1.08;0.80;;;;;;;;;;12608882;28;20044;-76
2022/07/12 07:58:02;;;;;;;1.02;0.63;;;;;;;;;;12625810;28;20044;-76
2022/07/12 08:04:04;;;;;;;0.65;0.65;;;;;;;;;;12653717;28;20036;-84
2022/07/12 08:10:06;;;;;;;0.68;0.60;;;;;;;;;;12635121;28;20032;-76
2022/07/12 08:16:08;;;;;;;0.75;0.40;;;;;;;;;;12653026;28;20067;-77
2022/07/12 08:22:10;;;;;;;0.82;0.60;;;;;;;;;;12643735;28;20388;-77
2022/07/12 08:28:12;;;;;;;0.70;0.52;;;;;;;;;;12653937;28;20484;-77
2022/07/12 08:34:13;;;;;;;0.55;0.40;;;;;;;;;;12651815;28;20036;-77
2022/07/12 08:40:15;;;;;;;0.95;0.60;;;;;;;;;;12617190;28;20055;-77
2022/07/12 08:46:17;;;;;;;3.28;0.60;;;;;;;;;;12632606;28;20400;-78
2022/07/12 08:52:28;;;;;;;0.73;0.57;;;;;;;;;;12616095;28;20039;-77
2022/07/12 08:58:30;;;;;;;0.70;0.30;;;;;;;;;;12633066;28;20043;-75
2022/07/12 09:04:32;;;;;;;0.73;0.47;;;;;;;;;;12615772;28;20472;-80
2022/07/12 09:10:54;;;;;;;0.57;0.40;;;;;;;;;;12633083;28;20047;-75
2022/07/12 09:17:09;;;;;;;1.27;0.47;;;;;;;;;;12649428;28;20052;-81
2022/07/12 09:23:12;;;;;;;0.70;0.22;;;;;;;;;;12649551;28;20388;-82
2022/07/12 09:29:14;;;;;;;1.35;0.47;;;;;;;;;;12631086;28;20028;-82
2022/07/12 09:41:36;;;;;;;0.53;0.40;;;;;;;;;;12648675;28;20408;-79
2022/07/12 09:47:38;;;;;;;0.30;0.30;;;;;;;;;;12648698;28;20048;-80
2022/07/12 09:53:47;;;;;;;0.52;0.20;;;;;;;;;;12629811;28;20036;-75
2022/07/12 09:59:52;;;;;;;0.65;0.20;;;;;;;;;;12647907;28;20062;-75
2022/07/12 10:05:54;;;;;;;0.30;0.30;;;;;;;;;;12648030;28;20024;-76
2022/07/12 10:11:56;;;;;;;0.60;0.40;;;;;;;;;;12630294;28;20040;-75
2022/07/12 10:18:01;;;;;;;0.52;0.45;;;;;;;;;;12647259;28;20040;-81
2022/07/12 10:24:02;;;;;;;0.68;0.68;;;;;;;;;;12627985;28;20039;-80
2022/07/12 10:30:15;;;;;;;1.58;0.50;;;;;;;;;;12650842;28;20028;-76
2022/07/12 10:36:16;;;;;;;0.40;0.40;;;;;;;;;;12646247;28;20051;-75
2022/07/12 10:42:18;;;;;;;0.68;0.50;;;;;;;;;;12646572;28;20056;-76
2022/07/12 10:48:21;;;;;;;0.82;0.40;;;;;;;;;;12645527;28;20035;-76
2022/07/12 10:54:23;;;;;;;1.48;0.47;;;;;;;;;;12645275;28;20048;-79
2022/07/12 11:00:25;;;;;;;1.75;0.60;;;;;;;;;;12610765;28;20032;-75
2022/07/12 11:06:27;;;;;;;0.85;0.60;;;;;;;;;;12627469;28;20103;-75
2022/07/12 11:12:29;;;;;;;0.30;0.30;;;;;;;;;;12626921;28;20499;-79
2022/07/12 11:18:32;;;;;;;1.00;0.47;;;;;;;;;;12644468;28;20044;-80
2022/07/12 11:24:37;;;;;;;0.40;0.40;;;;;;;;;;12645022;28;20032;-76
2022/07/12 11:30:46;;;;;;;0.32;0.32;;;;;;;;;;12626542;28;20036;-80
2022/07/12 11:36:47;;;;;;;0.55;0.50;;;;;;;;;;12654313;28;20032;-76
2022/07/12 11:42:53;;;;;;;0.43;0.40;;;;;;;;;;12655500;28;20055;-81
2022/07/12 11:48:55;;;;;;;1.13;0.40;;;;;;;;;;12635907;28;20404;-75
2022/07/12 11:54:57;;;;;;;0.70;0.43;;;;;;;;;;12654342;28;20032;-80
2022/07/12 12:00:58;;;;;;;0.50;0.40;;;;;;;;;;12636073;28;20028;-75
2022/07/12 12:07:00;;;;;;;0.57;0.52;;;;;;;;;;12654323;28;20032;-76
2022/07/12 12:13:03;;;;;;;0.30;0.30;;;;;;;;;;12635098;28;20252;-76
2022/07/12 12:19:11;;;;;;;1.00;0.50;;;;;;;;;;12652995;28;20032;-80
2022/07/12 12:25:14;;;;;;;0.43;0.20;;;;;;;;;;12652818;28;20039;-76
2022/07/12 12:31:19;;;;;;;0.60;0.43;;;;;;;;;;12653815;28;20035;-76
2022/07/12 12:37:21;;;;;;;0.60;0.40;;;;;;;;;;12635128;28;20059;-76
2022/07/12 12:43:23;;;;;;;0.28;0.28;;;;;;;;;;12651974;28;20056;-79
2022/07/12 12:49:47;;;;;;;0.77;0.40;;;;;;;;;;12651572;28;20024;-76
2022/07/12 12:55:50;;;;;;;0.30;0.30;;;;;;;;;;12616781;28;20051;-79
2022/07/12 13:01:53;;;;;;;0.60;0.60;;;;;;;;;;12651414;28;20475;-76
2022/07/12 13:07:55;;;;;;;1.90;0.30;;;;;;;;;;12651116;28;20036;-76
2022/07/12 13:13:58;;;;;;;0.95;0.52;;;;;;;;;;12632402;28;20032;-80
2022/07/12 13:20:00;;;;;;;0.32;0.30;;;;;;;;;;12614504;28;20528;-76
2022/07/12 13:26:01;;;;;;;0.45;0.45;;;;;;;;;;12631057;28;20044;-76
2022/07/12 13:32:03;;;;;;;0.45;0.40;;;;;;;;;;12648771;28;20035;-80
2022/07/12 13:38:05;;;;;;;0.60;0.60;;;;;;;;;;12649379;28;20048;-80
2022/07/12 13:44:06;;;;;;;0.80;0.45;;;;;;;;;;12649391;28;20048;-76
2022/07/12 13:50:09;;;;;;;0.43;0.35;;;;;;;;;;12630392;28;20036;-76
2022/07/12 13:56:11;;;;;;;0.57;0.40;;;;;;;;;;12629034;28;20518;-77
2022/07/12 14:02:13;;;;;;;1.08;0.40;;;;;;;;;;12629724;28;20051;-81
2022/07/12 14:08:15;;;;;;;0.95;0.30;;;;;;;;;;12630880;28;20028;-77
2022/07/12 14:14:33;;;;;;;0.40;0.40;;;;;;;;;;12647485;28;20036;-76
2022/07/12 14:20:36;;;;;;;1.15;0.55;;;;;;;;;;12647435;28;20047;-76
2022/07/12 14:26:38;;;;;;;0.68;0.47;;;;;;;;;;12628366;28;20028;-76
2022/07/12 14:32:41;;;;;;;0.20;0.20;;;;;;;;;;12646796;28;20032;-78
2022/07/12 14:38:43;;;;;;;0.32;0.32;;;;;;;;;;12646238;28;20073;-81
2022/07/12 14:44:44;;;;;;;1.02;0.28;;;;;;;;;;12628368;28;20396;-81
2022/07/12 14:50:46;;;;;;;1.00;0.25;;;;;;;;;;12646123;28;20496;-77
2022/07/12 14:56:48;;;;;;;0.50;0.40;;;;;;;;;;12627518;28;20040;-81
2022/07/12 15:02:50;;;;;;;0.75;0.38;;;;;;;;;;12610858;28;20036;-81
2022/07/12 15:08:53;;;;;;;0.20;0.20;;;;;;;;;;12645373;28;20028;-77
2022/07/12 15:14:54;;;;;;;0.80;0.40;;;;;;;;;;12644306;28;20048;-77
2022/07/12 15:20:56;;;;;;;0.60;0.43;;;;;;;;;;12644810;28;20032;-77
2022/07/12 15:26:58;;;;;;;0.47;0.40;;;;;;;;;;12645208;28;20293;-81
2022/07/12 15:33:00;;;;;;;1.23;0.55;;;;;;;;;;12645615;28;20510;-77
2022/07/12 15:39:02;;;;;;;0.90;0.30;;;;;;;;;;12644833;28;20067;-78
2022/07/12 15:45:06;;;;;;;1.23;0.30;;;;;;;;;;12645019;28;20044;-77
2022/07/12 15:51:08;;;;;;;0.40;0.40;;;;;;;;;;12644333;28;20380;-77
2022/07/12 15:57:10;;;;;;;0.38;0.38;;;;;;;;;;12625581;28;20055;-77
2022/07/12 16:03:12;;;;;;;0.30;0.20;;;;;;;;;;12626257;28;20043;-81
2022/07/12 16:09:14;;;;;;;0.45;0.35;;;;;;;;;;12644777;28;20375;-77
2022/07/12 16:15:15;;;;;;;1.05;0.25;;;;;;;;;;12625880;28;20051;-76
2022/07/12 16:21:17;;;;;;;0.20;0.10;;;;;;;;;;12630265;28;20046;-80
2022/07/12 16:27:19;;;;;;;1.08;0.30;;;;;;;;;;12652523;28;20040;-80
2022/07/12 16:33:22;;;;;;;0.32;0.13;;;;;;;;;;12652019;28;20043;-80
2022/07/12 16:39:24;;;;;;;0.43;0.30;;;;;;;;;;12633542;28;20052;-77
2022/07/12 16:45:28;;;;;;;0.68;0.40;;;;;;;;;;12651871;28;20040;-80
2022/07/12 16:51:30;;;;;;;0.88;0.20;;;;;;;;;;12651659;28;20407;-76
2022/07/12 16:57:32;;;;;;;0.47;0.30;;;;;;;;;;12633029;28;20040;-81
2022/07/12 17:03:34;;;;;;;0.57;0.30;;;;;;;;;;12651523;28;20047;-76
2022/07/12 17:09:35;;;;;;;0.30;0.30;;;;;;;;;;12633797;28;20050;-77
2022/07/12 17:15:38;;;;;;;1.30;0.40;;;;;;;;;;12632687;28;20396;-81
2022/07/12 17:21:39;;;;;;;0.30;0.20;;;;;;;;;;12633011;28;20055;-77
2022/07/12 17:27:42;;;;;;;0.65;0.28;;;;;;;;;;12650371;28;20475;-81
2022/07/12 17:33:47;;;;;;;0.60;0.30;;;;;;;;;;12631108;28;20035;-80
2022/07/12 17:39:49;;;;;;;0.73;0.32;;;;;;;;;;12630842;28;20412;-76
2022/07/12 17:45:50;;;;;;;0.32;0.30;;;;;;;;;;12631010;28;20032;-76
2022/07/12 17:51:52;;;;;;;0.30;0.30;;;;;;;;;;12648188;28;20039;-76
2022/07/12 18:04:14;;;;;;;0.53;0.30;;;;;;;;;;12645534;28;20032;-80
2022/07/12 18:10:16;;;;;;;1.48;0.40;;;;;;;;;;12646071;28;20035;-76
2022/07/12 18:16:17;;;;;;;0.43;0.20;;;;;;;;;;12644731;28;20051;-80
2022/07/12 18:22:19;;;;;;;1.05;0.47;;;;;;;;;;12609725;28;20042;-76
2022/07/12 18:28:21;;;;;;;0.93;0.35;;;;;;;;;;12625576;28;20036;-77
2022/07/12 18:34:23;;;;;;;0.40;0.30;;;;;;;;;;12643558;28;20032;-75
2022/07/12 18:40:24;;;;;;;0.90;0.38;;;;;;;;;;12643840;28;20059;-76
2022/07/12 18:46:27;;;;;;;0.22;0.20;;;;;;;;;;12642796;28;20044;-79
2022/07/12 18:52:29;;;;;;;0.95;0.35;;;;;;;;;;12608535;28;20387;-80
2022/07/12 18:58:31;;;;;;;0.75;0.40;;;;;;;;;;12644265;28;20047;-80
2022/07/12 19:04:33;;;;;;;0.50;0.30;;;;;;;;;;12643791;28;20036;-79
2022/07/12 19:10:35;;;;;;;0.50;0.40;;;;;;;;;;12645018;28;20076;-76
2022/07/12 19:16:36;;;;;;;0.40;0.30;;;;;;;;;;12643793;28;20044;-77
2022/07/12 19:22:38;;;;;;;0.40;0.40;;;;;;;;;;12625755;28;20035;-76
2022/07/12 19:28:40;;;;;;;0.68;0.30;;;;;;;;;;12625052;28;20036;-75
2022/07/12 19:34:41;;;;;;;0.85;0.40;;;;;;;;;;12642912;28;20055;-78
2022/07/12 19:40:43;;;;;;;1.23;0.40;;;;;;;;;;12642818;28;20059;-81
2022/07/12 19:46:45;;;;;;;2.60;0.60;;;;;;;;;;12607474;28;20043;-79
2022/07/12 19:52:46;;;;;;;1.65;0.70;;;;;;;;;;12607447;28;20039;-77
2022/07/12 19:58:48;;;;;;;1.38;0.50;;;;;;;;;;12635484;28;20324;-76
2022/07/12 20:04:51;;;;;;;1.63;0.50;;;;;;;;;;12653645;28;20040;-76
2022/07/12 20:10:53;;;;;;;1.27;0.50;;;;;;;;;;12635588;28;20032;-80
2022/07/12 20:16:55;;;;;;;1.17;0.55;;;;;;;;;;12635486;28;20048;-76
2022/07/12 20:22:57;;;;;;;0.95;0.50;;;;;;;;;;12635463;28;20035;-75
2022/07/12 20:28:59;;;;;;;1.13;0.40;;;;;;;;;;12618451;28;20047;-79
2022/07/12 20:35:01;;;;;;;0.40;0.40;;;;;;;;;;12634489;28;20059;-80
2022/07/12 20:41:06;;;;;;;0.95;0.60;;;;;;;;;;12634168;28;20233;-75
2022/07/12 20:47:08;;;;;;;0.98;0.57;;;;;;;;;;12651662;28;20480;-76
2022/07/12 20:53:10;;;;;;;0.50;0.50;;;;;;;;;;12651114;28;20036;-80
2022/07/12 20:59:12;;;;;;;1.05;0.65;;;;;;;;;;12650966;28;20032;-76
2022/07/12 21:05:14;;;;;;;0.43;0.43;;;;;;;;;;12615842;28;20036;-80
2022/07/12 21:11:18;;;;;;;2.58;0.80;;;;;;;;;;12632123;28;20396;-79
2022/07/12 21:17:20;;;;;;;1.30;0.60;;;;;;;;;;12650512;28;20059;-79
2022/07/12 21:23:22;;;;;;;0.60;0.52;;;;;;;;;;12631937;28;20036;-76
2022/07/12 21:29:24;;;;;;;1.75;0.70;;;;;;;;;;12649823;28;20035;-80
2022/07/12 21:35:26;;;;;;;1.00;0.60;;;;;;;;;;12614672;28;20080;-76
2022/07/12 21:41:28;;;;;;;0.57;0.38;;;;;;;;;;12631854;28;20056;-75
2022/07/12 21:47:30;;;;;;;0.75;0.70;;;;;;;;;;12630692;28;20036;-79
2022/07/12 21:53:31;;;;;;;0.50;0.40;;;;;;;;;;12630540;28;20499;-80
2022/07/12 21:59:33;;;;;;;1.50;0.50;;;;;;;;;;12629931;28;20044;-79
2022/07/12 22:05:35;;;;;;;0.75;0.40;;;;;;;;;;12629495;28;20055;-79
2022/07/12 22:11:37;;;;;;;1.35;0.60;;;;;;;;;;12612428;28;20040;-76
2022/07/12 22:17:40;;;;;;;0.88;0.80;;;;;;;;;;12627816;28;20047;-75
2022/07/12 22:23:42;;;;;;;1.23;0.70;;;;;;;;;;12629019;28;20028;-76
2022/07/12 22:29:44;;;;;;;0.73;0.60;;;;;;;;;;12646397;28;20035;-76
2022/07/12 22:35:45;;;;;;;1.25;0.60;;;;;;;;;;12646035;28;20040;-75
2022/07/12 22:41:47;;;;;;;0.38;0.38;;;;;;;;;;12646115;28;20052;-76
2022/07/12 22:47:49;;;;;;;0.50;0.50;;;;;;;;;;12645776;28;20039;-80
2022/07/12 22:53:51;;;;;;;0.63;0.40;;;;;;;;;;12645525;28;20043;-80
2022/07/12 22:59:53;;;;;;;0.60;0.60;;;;;;;;;;12645246;28;20047;-80
2022/07/12 23:05:54;;;;;;;;;;;;;;;;;;12645362;28;20036;-80
2022/07/12 23:11:56;;;;;;;0.47;0.47;;;;;;;;;;12644968;28;19912;-75
2022/07/12 23:17:58;;;;;;;0.60;0.60;;;;;;;;;;12644608;28;20673;-76
2022/07/12 23:24:00;;;;;;;0.75;0.60;;;;;;;;;;12610511;28;20392;-80
2022/07/12 23:30:02;;;;;;;0.40;0.40;;;;;;;;;;12609883;28;20032;-80
2022/07/12 23:36:03;;;;;;;0.98;0.50;;;;;;;;;;12626338;28;20395;-80
2022/07/12 23:42:06;;;;;;;0.60;0.50;;;;;;;;;;12625774;28;20159;-79
2022/07/12 23:48:07;;;;;;;0.60;0.40;;;;;;;;;;12644300;28;20036;-80
2022/07/12 23:54:09;;;;;;;;;;;;;;;;;;12625781;28;20032;-80
